sensor_id;sensor_type;location;lat;lon;timestamp;P1;durP1;ratioP1;P2;durP2;ratioP2
68940;SDS011;55982;51.476;7.552;2022-07-29T00:00:52;5.70;;;1.95;;
68940;SDS011;55982;51.476;7.552;2022-07-29T00:03:18;15.48;;;1.88;;
68940;SDS011;55982;51.476;7.552;2022-07-29T00:05:43;5.60;;;1.98;;
68940;SDS011;55982;51.476;7.552;2022-07-29T00:08:09;11.52;;;2.22;;
68940;SDS011;55982;51.476;7.552;2022-07-29T00:10:34;7.07;;;2.10;;
68940;SDS011;55982;51.476;7.552;2022-07-29T00:13:00;4.10;;;2.20;;
68940;SDS011;55982;51.476;7.552;2022-07-29T00:15:26;5.80;;;1.90;;
68940;SDS011;55982;51.476;7.552;2022-07-29T00:17:51;6.45;;;2.30;;
68940;SDS011;55982;51.476;7.552;2022-07-29T00:20:17;7.13;;;2.05;;
68940;SDS011;55982;51.476;7.552;2022-07-29T00:22:42;7.22;;;1.75;;
68940;SDS011;55982;51.476;7.552;2022-07-29T00:25:08;8.70;;;2.03;;
68940;SDS011;55982;51.476;7.552;2022-07-29T00:27:34;4.88;;;1.60;;
68940;SDS011;55982;51.476;7.552;2022-07-29T00:30:00;5.93;;;2.08;;
68940;SDS011;55982;51.476;7.552;2022-07-29T00:32:26;8.02;;;1.80;;
68940;SDS011;55982;51.476;7.552;2022-07-29T00:34:51;7.18;;;1.92;;
68940;SDS011;55982;51.476;7.552;2022-07-29T00:37:36;7.65;;;2.10;;
68940;SDS011;55982;51.476;7.552;2022-07-29T00:40:02;6.63;;;2.00;;
68940;SDS011;55982;51.476;7.552;2022-07-29T00:42:27;8.82;;;2.15;;
68940;SDS011;55982;51.476;7.552;2022-07-29T00:44:53;9.75;;;2.20;;
68940;SDS011;55982;51.476;7.552;2022-07-29T00:47:18;8.98;;;2.03;;
68940;SDS011;55982;51.476;7.552;2022-07-29T00:49:43;8.43;;;2.22;;
68940;SDS011;55982;51.476;7.552;2022-07-29T00:52:09;6.53;;;1.90;;
68940;SDS011;55982;51.476;7.552;2022-07-29T00:54:36;4.38;;;2.13;;
68940;SDS011;55982;51.476;7.552;2022-07-29T00:57:03;5.50;;;2.28;;
68940;SDS011;55982;51.476;7.552;2022-07-29T00:59:33;10.73;;;2.30;;
68940;SDS011;55982;51.476;7.552;2022-07-29T01:01:59;6.05;;;1.95;;
68940;SDS011;55982;51.476;7.552;2022-07-29T01:04:24;7.18;;;1.95;;
68940;SDS011;55982;51.476;7.552;2022-07-29T01:06:50;5.68;;;2.17;;
68940;SDS011;55982;51.476;7.552;2022-07-29T01:09:16;12.30;;;2.10;;
68940;SDS011;55982;51.476;7.552;2022-07-29T01:11:43;5.18;;;2.47;;
68940;SDS011;55982;51.476;7.552;2022-07-29T01:14:12;7.13;;;2.00;;
68940;SDS011;55982;51.476;7.552;2022-07-29T01:16:42;8.05;;;2.30;;
68940;SDS011;55982;51.476;7.552;2022-07-29T01:19:50;8.60;;;2.22;;
68940;SDS011;55982;51.476;7.552;2022-07-29T01:24:59;7.45;;;2.20;;
68940;SDS011;55982;51.476;7.552;2022-07-29T01:30:30;7.35;;;2.05;;
68940;SDS011;55982;51.476;7.552;2022-07-29T01:33:00;8.10;;;2.47;;
68940;SDS011;55982;51.476;7.552;2022-07-29T01:35:33;7.30;;;2.30;;
68940;SDS011;55982;51.476;7.552;2022-07-29T01:38:10;3.35;;;1.73;;
68940;SDS011;55982;51.476;7.552;2022-07-29T01:40:51;6.82;;;1.92;;
68940;SDS011;55982;51.476;7.552;2022-07-29T01:43:21;8.85;;;2.28;;
68940;SDS011;55982;51.476;7.552;2022-07-29T01:46:03;5.72;;;2.30;;
68940;SDS011;55982;51.476;7.552;2022-07-29T01:48:40;6.47;;;1.98;;
68940;SDS011;55982;51.476;7.552;2022-07-29T01:51:12;2.17;;;1.77;;
68940;SDS011;55982;51.476;7.552;2022-07-29T01:53:57;6.45;;;2.30;;
68940;SDS011;55982;51.476;7.552;2022-07-29T01:56:29;11.02;;;2.58;;
68940;SDS011;55982;51.476;7.552;2022-07-29T01:58:58;4.95;;;1.90;;
68940;SDS011;55982;51.476;7.552;2022-07-29T02:01:26;6.05;;;2.35;;
68940;SDS011;55982;51.476;7.552;2022-07-29T02:03:54;7.93;;;2.22;;
68940;SDS011;55982;51.476;7.552;2022-07-29T02:06:22;9.23;;;2.20;;
68940;SDS011;55982;51.476;7.552;2022-07-29T02:08:49;9.95;;;2.30;;
68940;SDS011;55982;51.476;7.552;2022-07-29T02:11:17;8.07;;;1.77;;
68940;SDS011;55982;51.476;7.552;2022-07-29T02:13:43;9.57;;;2.10;;
68940;SDS011;55982;51.476;7.552;2022-07-29T02:16:10;6.07;;;2.42;;
68940;SDS011;55982;51.476;7.552;2022-07-29T02:18:37;7.60;;;2.38;;
68940;SDS011;55982;51.476;7.552;2022-07-29T02:21:05;4.80;;;2.20;;
68940;SDS011;55982;51.476;7.552;2022-07-29T02:23:32;8.75;;;2.72;;
68940;SDS011;55982;51.476;7.552;2022-07-29T02:25:59;9.88;;;2.78;;
68940;SDS011;55982;51.476;7.552;2022-07-29T02:28:27;5.97;;;2.20;;
68940;SDS011;55982;51.476;7.552;2022-07-29T02:30:55;7.07;;;2.25;;
68940;SDS011;55982;51.476;7.552;2022-07-29T02:33:24;6.38;;;2.47;;
68940;SDS011;55982;51.476;7.552;2022-07-29T02:35:50;4.13;;;2.03;;
68940;SDS011;55982;51.476;7.552;2022-07-29T02:38:17;8.13;;;2.47;;
68940;SDS011;55982;51.476;7.552;2022-07-29T02:41:03;9.13;;;2.30;;
68940;SDS011;55982;51.476;7.552;2022-07-29T02:43:32;6.28;;;2.40;;
68940;SDS011;55982;51.476;7.552;2022-07-29T02:46:00;4.65;;;2.13;;
68940;SDS011;55982;51.476;7.552;2022-07-29T02:48:34;5.50;;;1.92;;
68940;SDS011;55982;51.476;7.552;2022-07-29T02:51:13;5.35;;;2.13;;
68940;SDS011;55982;51.476;7.552;2022-07-29T02:53:51;4.80;;;2.10;;
68940;SDS011;55982;51.476;7.552;2022-07-29T02:56:20;7.50;;;2.58;;
68940;SDS011;55982;51.476;7.552;2022-07-29T02:58:57;8.00;;;2.35;;
68940;SDS011;55982;51.476;7.552;2022-07-29T03:01:25;5.22;;;2.30;;
68940;SDS011;55982;51.476;7.552;2022-07-29T03:03:55;4.63;;;1.90;;
68940;SDS011;55982;51.476;7.552;2022-07-29T03:06:21;12.23;;;2.63;;
68940;SDS011;55982;51.476;7.552;2022-07-29T03:08:50;5.05;;;2.55;;
68940;SDS011;55982;51.476;7.552;2022-07-29T03:11:16;8.23;;;2.33;;
68940;SDS011;55982;51.476;7.552;2022-07-29T03:13:43;7.18;;;2.35;;
68940;SDS011;55982;51.476;7.552;2022-07-29T03:16:09;9.75;;;2.60;;
68940;SDS011;55982;51.476;7.552;2022-07-29T03:18:35;4.70;;;1.90;;
68940;SDS011;55982;51.476;7.552;2022-07-29T03:21:02;9.48;;;2.50;;
68940;SDS011;55982;51.476;7.552;2022-07-29T03:23:28;4.45;;;1.95;;
68940;SDS011;55982;51.476;7.552;2022-07-29T03:25:54;10.65;;;2.58;;
68940;SDS011;55982;51.476;7.552;2022-07-29T03:28:20;6.00;;;2.20;;
68940;SDS011;55982;51.476;7.552;2022-07-29T03:30:47;9.10;;;2.10;;
68940;SDS011;55982;51.476;7.552;2022-07-29T03:33:13;6.10;;;2.45;;
68940;SDS011;55982;51.476;7.552;2022-07-29T03:35:38;10.13;;;2.30;;
68940;SDS011;55982;51.476;7.552;2022-07-29T03:38:04;5.22;;;2.45;;
68940;SDS011;55982;51.476;7.552;2022-07-29T03:40:34;4.32;;;2.30;;
68940;SDS011;55982;51.476;7.552;2022-07-29T03:43:03;8.68;;;2.50;;
68940;SDS011;55982;51.476;7.552;2022-07-29T03:45:30;7.35;;;2.60;;
68940;SDS011;55982;51.476;7.552;2022-07-29T03:47:59;8.98;;;2.70;;
68940;SDS011;55982;51.476;7.552;2022-07-29T03:50:29;6.63;;;2.53;;
68940;SDS011;55982;51.476;7.552;2022-07-29T03:52:55;8.25;;;2.55;;
68940;SDS011;55982;51.476;7.552;2022-07-29T03:55:22;5.60;;;2.30;;
68940;SDS011;55982;51.476;7.552;2022-07-29T03:57:48;6.78;;;2.75;;
68940;SDS011;55982;51.476;7.552;2022-07-29T04:00:14;16.05;;;2.95;;
68940;SDS011;55982;51.476;7.552;2022-07-29T04:02:40;9.75;;;2.70;;
68940;SDS011;55982;51.476;7.552;2022-07-29T04:05:12;5.40;;;2.40;;
68940;SDS011;55982;51.476;7.552;2022-07-29T04:07:39;11.38;;;2.65;;
68940;SDS011;55982;51.476;7.552;2022-07-29T04:10:06;5.13;;;2.42;;
68940;SDS011;55982;51.476;7.552;2022-07-29T04:12:32;11.32;;;3.20;;
68940;SDS011;55982;51.476;7.552;2022-07-29T04:14:57;4.95;;;2.53;;
68940;SDS011;55982;51.476;7.552;2022-07-29T04:17:23;9.98;;;2.25;;
68940;SDS011;55982;51.476;7.552;2022-07-29T04:19:48;4.85;;;2.80;;
68940;SDS011;55982;51.476;7.552;2022-07-29T04:22:13;6.95;;;2.88;;
68940;SDS011;55982;51.476;7.552;2022-07-29T04:24:39;4.32;;;2.10;;
68940;SDS011;55982;51.476;7.552;2022-07-29T04:27:04;5.25;;;2.33;;
68940;SDS011;55982;51.476;7.552;2022-07-29T04:29:29;7.03;;;2.10;;
68940;SDS011;55982;51.476;7.552;2022-07-29T04:31:55;10.52;;;2.40;;
68940;SDS011;55982;51.476;7.552;2022-07-29T04:34:20;6.72;;;2.28;;
68940;SDS011;55982;51.476;7.552;2022-07-29T04:36:45;9.88;;;2.45;;
68940;SDS011;55982;51.476;7.552;2022-07-29T04:39:11;6.75;;;2.13;;
68940;SDS011;55982;51.476;7.552;2022-07-29T04:41:36;6.95;;;2.78;;
68940;SDS011;55982;51.476;7.552;2022-07-29T04:44:03;6.97;;;2.53;;
68940;SDS011;55982;51.476;7.552;2022-07-29T04:46:30;6.10;;;2.40;;
68940;SDS011;55982;51.476;7.552;2022-07-29T04:48:56;4.85;;;2.65;;
68940;SDS011;55982;51.476;7.552;2022-07-29T04:51:21;9.73;;;2.60;;
68940;SDS011;55982;51.476;7.552;2022-07-29T04:53:47;4.38;;;2.35;;
68940;SDS011;55982;51.476;7.552;2022-07-29T04:56:12;7.40;;;2.63;;
68940;SDS011;55982;51.476;7.552;2022-07-29T04:58:38;9.23;;;3.20;;
68940;SDS011;55982;51.476;7.552;2022-07-29T05:01:03;6.35;;;2.42;;
68940;SDS011;55982;51.476;7.552;2022-07-29T05:03:29;8.55;;;2.60;;
68940;SDS011;55982;51.476;7.552;2022-07-29T05:05:54;3.65;;;2.30;;
68940;SDS011;55982;51.476;7.552;2022-07-29T05:08:20;12.68;;;2.95;;
68940;SDS011;55982;51.476;7.552;2022-07-29T05:10:45;8.00;;;2.78;;
68940;SDS011;55982;51.476;7.552;2022-07-29T05:13:11;10.00;;;3.00;;
68940;SDS011;55982;51.476;7.552;2022-07-29T05:15:36;13.70;;;3.05;;
68940;SDS011;55982;51.476;7.552;2022-07-29T05:18:02;18.00;;;2.55;;
68940;SDS011;55982;51.476;7.552;2022-07-29T05:20:28;7.80;;;2.60;;
68940;SDS011;55982;51.476;7.552;2022-07-29T05:22:55;6.20;;;2.30;;
68940;SDS011;55982;51.476;7.552;2022-07-29T05:25:22;11.93;;;2.40;;
68940;SDS011;55982;51.476;7.552;2022-07-29T05:27:49;11.43;;;2.03;;
68940;SDS011;55982;51.476;7.552;2022-07-29T05:30:15;5.43;;;2.15;;
68940;SDS011;55982;51.476;7.552;2022-07-29T05:32:40;6.55;;;2.22;;
68940;SDS011;55982;51.476;7.552;2022-07-29T05:35:06;8.68;;;2.30;;
68940;SDS011;55982;51.476;7.552;2022-07-29T05:37:31;13.25;;;3.03;;
68940;SDS011;55982;51.476;7.552;2022-07-29T05:39:57;9.52;;;2.38;;
68940;SDS011;55982;51.476;7.552;2022-07-29T05:42:24;10.40;;;2.58;;
68940;SDS011;55982;51.476;7.552;2022-07-29T05:44:49;4.72;;;2.80;;
68940;SDS011;55982;51.476;7.552;2022-07-29T05:47:15;7.80;;;2.60;;
68940;SDS011;55982;51.476;7.552;2022-07-29T05:49:41;12.57;;;2.38;;
68940;SDS011;55982;51.476;7.552;2022-07-29T05:52:06;6.60;;;2.42;;
68940;SDS011;55982;51.476;7.552;2022-07-29T05:54:32;11.57;;;2.30;;
68940;SDS011;55982;51.476;7.552;2022-07-29T05:56:57;9.98;;;5.13;;
68940;SDS011;55982;51.476;7.552;2022-07-29T05:59:22;8.90;;;3.28;;
68940;SDS011;55982;51.476;7.552;2022-07-29T06:01:48;11.27;;;2.50;;
68940;SDS011;55982;51.476;7.552;2022-07-29T06:04:13;4.85;;;2.50;;
68940;SDS011;55982;51.476;7.552;2022-07-29T06:06:38;13.38;;;2.40;;
68940;SDS011;55982;51.476;7.552;2022-07-29T06:09:04;5.45;;;1.98;;
68940;SDS011;55982;51.476;7.552;2022-07-29T06:11:29;5.57;;;2.05;;
68940;SDS011;55982;51.476;7.552;2022-07-29T06:13:55;6.18;;;1.88;;
68940;SDS011;55982;51.476;7.552;2022-07-29T06:16:20;7.22;;;2.25;;
68940;SDS011;55982;51.476;7.552;2022-07-29T06:18:46;9.45;;;1.90;;
68940;SDS011;55982;51.476;7.552;2022-07-29T06:21:11;6.32;;;2.40;;
68940;SDS011;55982;51.476;7.552;2022-07-29T06:23:37;7.97;;;2.30;;
68940;SDS011;55982;51.476;7.552;2022-07-29T06:26:03;5.82;;;2.15;;
68940;SDS011;55982;51.476;7.552;2022-07-29T06:28:29;5.93;;;2.20;;
68940;SDS011;55982;51.476;7.552;2022-07-29T06:30:54;7.15;;;2.22;;
68940;SDS011;55982;51.476;7.552;2022-07-29T06:33:19;10.57;;;2.58;;
68940;SDS011;55982;51.476;7.552;2022-07-29T06:35:45;6.93;;;2.30;;
68940;SDS011;55982;51.476;7.552;2022-07-29T06:38:12;4.38;;;2.28;;
68940;SDS011;55982;51.476;7.552;2022-07-29T06:40:40;6.68;;;2.53;;
68940;SDS011;55982;51.476;7.552;2022-07-29T06:43:32;7.43;;;3.10;;
68940;SDS011;55982;51.476;7.552;2022-07-29T06:46:01;9.73;;;2.63;;
68940;SDS011;55982;51.476;7.552;2022-07-29T06:48:28;8.95;;;2.78;;
68940;SDS011;55982;51.476;7.552;2022-07-29T06:50:54;5.35;;;2.60;;
68940;SDS011;55982;51.476;7.552;2022-07-29T06:53:19;10.60;;;2.70;;
68940;SDS011;55982;51.476;7.552;2022-07-29T06:55:45;8.68;;;2.75;;
68940;SDS011;55982;51.476;7.552;2022-07-29T06:58:11;12.13;;;3.05;;
68940;SDS011;55982;51.476;7.552;2022-07-29T07:00:36;9.70;;;2.63;;
68940;SDS011;55982;51.476;7.552;2022-07-29T07:03:02;8.07;;;2.95;;
68940;SDS011;55982;51.476;7.552;2022-07-29T07:05:28;6.32;;;2.50;;
68940;SDS011;55982;51.476;7.552;2022-07-29T07:07:53;4.38;;;2.30;;
68940;SDS011;55982;51.476;7.552;2022-07-29T07:10:19;7.88;;;2.50;;
68940;SDS011;55982;51.476;7.552;2022-07-29T07:12:44;8.55;;;2.33;;
68940;SDS011;55982;51.476;7.552;2022-07-29T07:15:09;10.98;;;2.60;;
68940;SDS011;55982;51.476;7.552;2022-07-29T07:17:35;6.07;;;2.80;;
68940;SDS011;55982;51.476;7.552;2022-07-29T07:20:02;9.40;;;2.83;;
68940;SDS011;55982;51.476;7.552;2022-07-29T07:22:29;8.82;;;2.08;;
68940;SDS011;55982;51.476;7.552;2022-07-29T07:24:55;5.15;;;2.40;;
68940;SDS011;55982;51.476;7.552;2022-07-29T07:27:20;7.38;;;2.92;;
68940;SDS011;55982;51.476;7.552;2022-07-29T07:29:45;8.80;;;3.00;;
68940;SDS011;55982;51.476;7.552;2022-07-29T07:32:11;5.03;;;2.00;;
68940;SDS011;55982;51.476;7.552;2022-07-29T07:34:38;9.70;;;2.63;;
68940;SDS011;55982;51.476;7.552;2022-07-29T07:37:03;5.55;;;2.10;;
68940;SDS011;55982;51.476;7.552;2022-07-29T07:39:28;9.45;;;2.15;;
68940;SDS011;55982;51.476;7.552;2022-07-29T07:41:54;8.52;;;2.38;;
68940;SDS011;55982;51.476;7.552;2022-07-29T07:44:19;6.50;;;2.40;;
68940;SDS011;55982;51.476;7.552;2022-07-29T07:46:45;9.02;;;2.42;;
68940;SDS011;55982;51.476;7.552;2022-07-29T07:49:10;5.80;;;2.33;;
68940;SDS011;55982;51.476;7.552;2022-07-29T07:51:36;12.73;;;2.92;;
68940;SDS011;55982;51.476;7.552;2022-07-29T07:54:01;8.18;;;2.53;;
68940;SDS011;55982;51.476;7.552;2022-07-29T07:56:27;6.25;;;2.30;;
68940;SDS011;55982;51.476;7.552;2022-07-29T07:58:52;5.32;;;2.58;;
68940;SDS011;55982;51.476;7.552;2022-07-29T08:01:18;4.53;;;2.30;;
68940;SDS011;55982;51.476;7.552;2022-07-29T08:03:46;6.20;;;2.70;;
68940;SDS011;55982;51.476;7.552;2022-07-29T08:06:11;9.13;;;2.78;;
68940;SDS011;55982;51.476;7.552;2022-07-29T08:08:37;8.80;;;2.72;;
68940;SDS011;55982;51.476;7.552;2022-07-29T08:11:02;6.72;;;3.00;;
68940;SDS011;55982;51.476;7.552;2022-07-29T08:13:28;9.73;;;2.90;;
68940;SDS011;55982;51.476;7.552;2022-07-29T08:15:55;9.20;;;2.60;;
68940;SDS011;55982;51.476;7.552;2022-07-29T08:18:35;7.72;;;2.22;;
68940;SDS011;55982;51.476;7.552;2022-07-29T08:21:01;5.97;;;2.40;;
68940;SDS011;55982;51.476;7.552;2022-07-29T08:23:26;8.77;;;2.45;;
68940;SDS011;55982;51.476;7.552;2022-07-29T08:25:59;11.13;;;3.10;;
68940;SDS011;55982;51.476;7.552;2022-07-29T08:28:25;8.00;;;3.00;;
68940;SDS011;55982;51.476;7.552;2022-07-29T08:30:51;8.07;;;2.83;;
68940;SDS011;55982;51.476;7.552;2022-07-29T08:33:16;6.15;;;2.60;;
68940;SDS011;55982;51.476;7.552;2022-07-29T08:35:42;9.15;;;3.28;;
68940;SDS011;55982;51.476;7.552;2022-07-29T08:38:08;7.95;;;2.72;;
68940;SDS011;55982;51.476;7.552;2022-07-29T08:40:33;8.75;;;2.95;;
68940;SDS011;55982;51.476;7.552;2022-07-29T08:43:03;6.18;;;2.67;;
68940;SDS011;55982;51.476;7.552;2022-07-29T08:45:45;6.30;;;2.65;;
68940;SDS011;55982;51.476;7.552;2022-07-29T08:48:13;4.43;;;2.70;;
68940;SDS011;55982;51.476;7.552;2022-07-29T08:50:39;6.30;;;2.70;;
68940;SDS011;55982;51.476;7.552;2022-07-29T08:53:16;12.25;;;3.78;;
68940;SDS011;55982;51.476;7.552;2022-07-29T08:55:43;7.93;;;2.53;;
68940;SDS011;55982;51.476;7.552;2022-07-29T08:58:10;4.38;;;2.45;;
68940;SDS011;55982;51.476;7.552;2022-07-29T09:00:37;6.55;;;2.60;;
68940;SDS011;55982;51.476;7.552;2022-07-29T09:03:07;5.13;;;1.92;;
68940;SDS011;55982;51.476;7.552;2022-07-29T09:05:34;8.25;;;2.28;;
68940;SDS011;55982;51.476;7.552;2022-07-29T09:07:59;4.68;;;2.38;;
68940;SDS011;55982;51.476;7.552;2022-07-29T09:10:26;10.73;;;2.38;;
68940;SDS011;55982;51.476;7.552;2022-07-29T09:12:51;8.55;;;2.25;;
68940;SDS011;55982;51.476;7.552;2022-07-29T09:15:17;7.75;;;2.30;;
68940;SDS011;55982;51.476;7.552;2022-07-29T09:17:47;9.88;;;2.45;;
68940;SDS011;55982;51.476;7.552;2022-07-29T09:20:18;5.35;;;2.17;;
68940;SDS011;55982;51.476;7.552;2022-07-29T09:22:46;5.38;;;2.00;;
68940;SDS011;55982;51.476;7.552;2022-07-29T09:25:14;4.60;;;1.95;;
68940;SDS011;55982;51.476;7.552;2022-07-29T09:28:04;9.95;;;2.17;;
68940;SDS011;55982;51.476;7.552;2022-07-29T09:30:30;13.60;;;2.40;;
68940;SDS011;55982;51.476;7.552;2022-07-29T09:33:00;5.75;;;2.55;;
68940;SDS011;55982;51.476;7.552;2022-07-29T09:35:27;8.27;;;2.40;;
68940;SDS011;55982;51.476;7.552;2022-07-29T09:37:54;7.43;;;2.28;;
68940;SDS011;55982;51.476;7.552;2022-07-29T09:42:48;8.57;;;3.45;;
68940;SDS011;55982;51.476;7.552;2022-07-29T09:45:26;9.40;;;3.65;;
68940;SDS011;55982;51.476;7.552;2022-07-29T09:47:51;14.98;;;3.83;;
68940;SDS011;55982;51.476;7.552;2022-07-29T09:50:17;9.98;;;4.20;;
68940;SDS011;55982;51.476;7.552;2022-07-29T09:52:49;10.20;;;3.20;;
68940;SDS011;55982;51.476;7.552;2022-07-29T09:55:16;12.23;;;3.13;;
68940;SDS011;55982;51.476;7.552;2022-07-29T09:57:42;15.45;;;3.60;;
68940;SDS011;55982;51.476;7.552;2022-07-29T10:00:10;22.23;;;3.65;;
68940;SDS011;55982;51.476;7.552;2022-07-29T10:02:38;16.45;;;3.13;;
68940;SDS011;55982;51.476;7.552;2022-07-29T10:05:07;9.77;;;2.65;;
68940;SDS011;55982;51.476;7.552;2022-07-29T10:08:04;11.48;;;3.25;;
68940;SDS011;55982;51.476;7.552;2022-07-29T10:10:28;13.60;;;3.50;;
68940;SDS011;55982;51.476;7.552;2022-07-29T10:12:56;11.55;;;2.55;;
68940;SDS011;55982;51.476;7.552;2022-07-29T10:15:24;10.35;;;3.33;;
68940;SDS011;55982;51.476;7.552;2022-07-29T10:17:57;11.85;;;3.20;;
68940;SDS011;55982;51.476;7.552;2022-07-29T10:20:24;9.10;;;3.22;;
68940;SDS011;55982;51.476;7.552;2022-07-29T10:22:51;7.78;;;3.10;;
68940;SDS011;55982;51.476;7.552;2022-07-29T10:25:18;8.82;;;3.75;;
68940;SDS011;55982;51.476;7.552;2022-07-29T10:27:44;11.18;;;4.10;;
68940;SDS011;55982;51.476;7.552;2022-07-29T10:30:11;9.40;;;3.63;;
68940;SDS011;55982;51.476;7.552;2022-07-29T10:40:57;7.93;;;4.15;;
68940;SDS011;55982;51.476;7.552;2022-07-29T10:44:16;9.32;;;4.50;;
68940;SDS011;55982;51.476;7.552;2022-07-29T10:46:44;14.07;;;5.10;;
68940;SDS011;55982;51.476;7.552;2022-07-29T10:49:21;12.18;;;5.53;;
68940;SDS011;55982;51.476;7.552;2022-07-29T10:54:15;9.75;;;4.43;;
68940;SDS011;55982;51.476;7.552;2022-07-29T10:56:41;12.63;;;5.45;;
68940;SDS011;55982;51.476;7.552;2022-07-29T11:01:51;8.00;;;5.00;;
68940;SDS011;55982;51.476;7.552;2022-07-29T11:04:58;8.25;;;5.00;;
68940;SDS011;55982;51.476;7.552;2022-07-29T11:07:15;12.82;;;4.60;;
68940;SDS011;55982;51.476;7.552;2022-07-29T11:09:41;8.23;;;4.10;;
68940;SDS011;55982;51.476;7.552;2022-07-29T11:23:21;10.40;;;3.95;;
68940;SDS011;55982;51.476;7.552;2022-07-29T11:29:04;7.43;;;4.20;;
68940;SDS011;55982;51.476;7.552;2022-07-29T11:31:41;14.18;;;4.78;;
68940;SDS011;55982;51.476;7.552;2022-07-29T11:39:43;10.63;;;3.72;;
68940;SDS011;55982;51.476;7.552;2022-07-29T11:42:57;5.20;;;3.50;;
68940;SDS011;55982;51.476;7.552;2022-07-29T11:45:05;9.95;;;3.72;;
68940;SDS011;55982;51.476;7.552;2022-07-29T11:50:14;8.30;;;4.13;;
68940;SDS011;55982;51.476;7.552;2022-07-29T11:52:46;7.47;;;3.90;;
68940;SDS011;55982;51.476;7.552;2022-07-29T11:55:15;12.25;;;4.63;;
68940;SDS011;55982;51.476;7.552;2022-07-29T11:57:47;8.32;;;3.85;;
68940;SDS011;55982;51.476;7.552;2022-07-29T12:00:27;9.85;;;4.30;;
68940;SDS011;55982;51.476;7.552;2022-07-29T12:02:59;12.80;;;4.40;;
68940;SDS011;55982;51.476;7.552;2022-07-29T12:05:33;10.57;;;3.85;;
68940;SDS011;55982;51.476;7.552;2022-07-29T12:10:32;8.10;;;4.85;;
68940;SDS011;55982;51.476;7.552;2022-07-29T12:12:58;6.50;;;4.05;;
68940;SDS011;55982;51.476;7.552;2022-07-29T12:15:23;10.23;;;4.38;;
68940;SDS011;55982;51.476;7.552;2022-07-29T12:17:50;8.00;;;4.28;;
68940;SDS011;55982;51.476;7.552;2022-07-29T12:20:23;20.90;;;5.70;;
68940;SDS011;55982;51.476;7.552;2022-07-29T12:22:52;11.73;;;4.82;;
68940;SDS011;55982;51.476;7.552;2022-07-29T12:25:19;10.30;;;5.03;;
68940;SDS011;55982;51.476;7.552;2022-07-29T12:27:46;11.25;;;3.70;;
68940;SDS011;55982;51.476;7.552;2022-07-29T12:30:13;14.00;;;4.30;;
68940;SDS011;55982;51.476;7.552;2022-07-29T12:32:45;7.07;;;4.47;;
68940;SDS011;55982;51.476;7.552;2022-07-29T12:35:15;11.18;;;5.20;;
68940;SDS011;55982;51.476;7.552;2022-07-29T12:37:44;10.57;;;4.47;;
68940;SDS011;55982;51.476;7.552;2022-07-29T12:40:12;10.43;;;5.45;;
68940;SDS011;55982;51.476;7.552;2022-07-29T12:42:41;10.57;;;5.00;;
68940;SDS011;55982;51.476;7.552;2022-07-29T12:45:07;16.40;;;4.57;;
68940;SDS011;55982;51.476;7.552;2022-07-29T12:47:32;11.75;;;4.60;;
68940;SDS011;55982;51.476;7.552;2022-07-29T12:50:15;7.90;;;4.70;;
68940;SDS011;55982;51.476;7.552;2022-07-29T12:52:42;11.93;;;4.82;;
68940;SDS011;55982;51.476;7.552;2022-07-29T12:55:09;7.65;;;4.25;;
68940;SDS011;55982;51.476;7.552;2022-07-29T12:57:45;12.68;;;4.43;;
68940;SDS011;55982;51.476;7.552;2022-07-29T13:00:21;10.40;;;4.93;;
68940;SDS011;55982;51.476;7.552;2022-07-29T13:02:54;10.07;;;5.00;;
68940;SDS011;55982;51.476;7.552;2022-07-29T13:05:23;11.50;;;5.35;;
68940;SDS011;55982;51.476;7.552;2022-07-29T13:07:49;7.47;;;5.07;;
68940;SDS011;55982;51.476;7.552;2022-07-29T13:10:19;11.55;;;5.50;;
68940;SDS011;55982;51.476;7.552;2022-07-29T13:13:02;17.65;;;6.03;;
68940;SDS011;55982;51.476;7.552;2022-07-29T13:15:34;13.50;;;5.45;;
68940;SDS011;55982;51.476;7.552;2022-07-29T13:18:01;13.52;;;5.75;;
68940;SDS011;55982;51.476;7.552;2022-07-29T13:20:27;11.70;;;5.30;;
68940;SDS011;55982;51.476;7.552;2022-07-29T13:22:55;10.63;;;5.72;;
68940;SDS011;55982;51.476;7.552;2022-07-29T13:25:25;12.60;;;6.13;;
68940;SDS011;55982;51.476;7.552;2022-07-29T13:27:55;7.70;;;5.72;;
68940;SDS011;55982;51.476;7.552;2022-07-29T13:30:21;19.05;;;7.03;;
68940;SDS011;55982;51.476;7.552;2022-07-29T13:32:47;12.70;;;6.93;;
68940;SDS011;55982;51.476;7.552;2022-07-29T13:35:13;14.82;;;6.70;;
68940;SDS011;55982;51.476;7.552;2022-07-29T13:37:39;15.98;;;7.28;;
68940;SDS011;55982;51.476;7.552;2022-07-29T13:40:05;16.52;;;6.85;;
68940;SDS011;55982;51.476;7.552;2022-07-29T13:42:32;11.43;;;6.53;;
68940;SDS011;55982;51.476;7.552;2022-07-29T13:44:58;10.32;;;6.38;;
68940;SDS011;55982;51.476;7.552;2022-07-29T13:47:24;15.65;;;5.53;;
68940;SDS011;55982;51.476;7.552;2022-07-29T13:49:49;8.15;;;4.93;;
68940;SDS011;55982;51.476;7.552;2022-07-29T13:52:15;9.35;;;5.78;;
68940;SDS011;55982;51.476;7.552;2022-07-29T13:54:40;13.20;;;5.90;;
68940;SDS011;55982;51.476;7.552;2022-07-29T13:57:06;9.45;;;6.30;;
68940;SDS011;55982;51.476;7.552;2022-07-29T13:59:32;11.77;;;5.70;;
68940;SDS011;55982;51.476;7.552;2022-07-29T14:01:58;8.70;;;5.10;;
68940;SDS011;55982;51.476;7.552;2022-07-29T14:04:24;10.20;;;4.53;;
68940;SDS011;55982;51.476;7.552;2022-07-29T14:06:50;8.52;;;4.53;;
68940;SDS011;55982;51.476;7.552;2022-07-29T14:09:16;9.60;;;4.78;;
68940;SDS011;55982;51.476;7.552;2022-07-29T14:11:41;10.43;;;4.82;;
68940;SDS011;55982;51.476;7.552;2022-07-29T14:14:06;10.57;;;4.97;;
68940;SDS011;55982;51.476;7.552;2022-07-29T14:16:32;9.50;;;4.05;;
68940;SDS011;55982;51.476;7.552;2022-07-29T14:18:58;6.47;;;4.50;;
68940;SDS011;55982;51.476;7.552;2022-07-29T14:21:23;14.70;;;5.20;;
68940;SDS011;55982;51.476;7.552;2022-07-29T14:23:48;9.45;;;4.63;;
68940;SDS011;55982;51.476;7.552;2022-07-29T14:26:14;10.80;;;4.85;;
68940;SDS011;55982;51.476;7.552;2022-07-29T14:28:39;6.43;;;3.97;;
68940;SDS011;55982;51.476;7.552;2022-07-29T14:31:05;6.10;;;3.97;;
68940;SDS011;55982;51.476;7.552;2022-07-29T14:33:30;10.70;;;4.43;;
68940;SDS011;55982;51.476;7.552;2022-07-29T14:35:55;6.38;;;4.03;;
68940;SDS011;55982;51.476;7.552;2022-07-29T14:38:21;10.63;;;4.45;;
68940;SDS011;55982;51.476;7.552;2022-07-29T14:40:46;16.75;;;7.07;;
68940;SDS011;55982;51.476;7.552;2022-07-29T14:43:12;9.30;;;5.35;;
68940;SDS011;55982;51.476;7.552;2022-07-29T14:45:38;8.02;;;4.30;;
68940;SDS011;55982;51.476;7.552;2022-07-29T14:48:04;12.32;;;3.85;;
68940;SDS011;55982;51.476;7.552;2022-07-29T14:50:30;8.02;;;3.92;;
68940;SDS011;55982;51.476;7.552;2022-07-29T14:52:55;10.15;;;3.70;;
68940;SDS011;55982;51.476;7.552;2022-07-29T14:55:21;8.60;;;3.63;;
68940;SDS011;55982;51.476;7.552;2022-07-29T14:57:46;5.75;;;3.30;;
68940;SDS011;55982;51.476;7.552;2022-07-29T15:00:12;10.02;;;3.63;;
68940;SDS011;55982;51.476;7.552;2022-07-29T15:02:38;12.55;;;4.25;;
68940;SDS011;55982;51.476;7.552;2022-07-29T15:05:04;8.80;;;4.45;;
68940;SDS011;55982;51.476;7.552;2022-07-29T15:07:30;8.75;;;4.20;;
68940;SDS011;55982;51.476;7.552;2022-07-29T15:09:55;9.63;;;4.22;;
68940;SDS011;55982;51.476;7.552;2022-07-29T15:12:20;7.45;;;3.95;;
68940;SDS011;55982;51.476;7.552;2022-07-29T15:14:46;7.30;;;4.05;;
68940;SDS011;55982;51.476;7.552;2022-07-29T15:17:11;9.93;;;4.30;;
68940;SDS011;55982;51.476;7.552;2022-07-29T15:19:36;7.35;;;3.80;;
68940;SDS011;55982;51.476;7.552;2022-07-29T15:22:02;10.40;;;3.90;;
68940;SDS011;55982;51.476;7.552;2022-07-29T15:24:29;14.07;;;4.68;;
68940;SDS011;55982;51.476;7.552;2022-07-29T15:26:55;10.75;;;3.42;;
68940;SDS011;55982;51.476;7.552;2022-07-29T15:29:21;11.52;;;3.80;;
68940;SDS011;55982;51.476;7.552;2022-07-29T15:31:46;13.30;;;4.43;;
68940;SDS011;55982;51.476;7.552;2022-07-29T15:34:12;7.75;;;3.42;;